sensor_id;sensor_type;location;lat;lon;timestamp;temperature;humidity
64634;DHT22;51043;52.406;9.690;2023-04-24T00:02:18;11.50;99.90
64634;DHT22;51043;52.406;9.690;2023-04-24T00:04:47;11.60;99.90
64634;DHT22;51043;52.406;9.690;2023-04-24T00:07:15;11.50;99.90
64634;DHT22;51043;52.406;9.690;2023-04-24T00:09:43;11.40;99.90
64634;DHT22;51043;52.406;9.690;2023-04-24T00:12:11;11.40;99.90
64634;DHT22;51043;52.406;9.690;2023-04-24T00:14:39;11.50;99.90
64634;DHT22;51043;52.406;9.690;2023-04-24T00:17:07;11.40;99.90
64634;DHT22;51043;52.406;9.690;2023-04-24T00:19:37;11.40;99.90
64634;DHT22;51043;52.406;9.690;2023-04-24T00:22:05;11.40;99.90
64634;DHT22;51043;52.406;9.690;2023-04-24T00:24:33;11.40;99.90
64634;DHT22;51043;52.406;9.690;2023-04-24T00:27:01;11.30;99.90
64634;DHT22;51043;52.406;9.690;2023-04-24T00:29:29;11.20;99.90
64634;DHT22;51043;52.406;9.690;2023-04-24T00:31:57;11.20;99.90
64634;DHT22;51043;52.406;9.690;2023-04-24T00:34:25;11.20;99.90
64634;DHT22;51043;52.406;9.690;2023-04-24T00:36:54;11.10;99.90
64634;DHT22;51043;52.406;9.690;2023-04-24T00:39:23;11.10;99.90
64634;DHT22;51043;52.406;9.690;2023-04-24T00:41:51;11.00;99.90
64634;DHT22;51043;52.406;9.690;2023-04-24T00:44:20;11.00;99.90
64634;DHT22;51043;52.406;9.690;2023-04-24T00:46:49;11.00;99.90
64634;DHT22;51043;52.406;9.690;2023-04-24T00:49:22;11.30;99.90
64634;DHT22;51043;52.406;9.690;2023-04-24T00:51:50;11.30;99.90
64634;DHT22;51043;52.406;9.690;2023-04-24T00:54:19;11.30;99.90
64634;DHT22;51043;52.406;9.690;2023-04-24T00:56:49;11.20;99.90
64634;DHT22;51043;52.406;9.690;2023-04-24T00:59:18;11.10;99.90
64634;DHT22;51043;52.406;9.690;2023-04-24T01:01:46;11.20;99.90
64634;DHT22;51043;52.406;9.690;2023-04-24T01:04:16;11.10;99.90
64634;DHT22;51043;52.406;9.690;2023-04-24T01:06:45;11.20;99.90
64634;DHT22;51043;52.406;9.690;2023-04-24T01:09:13;11.20;99.90
64634;DHT22;51043;52.406;9.690;2023-04-24T01:11:43;11.30;99.90
64634;DHT22;51043;52.406;9.690;2023-04-24T01:14:11;11.20;99.90
64634;DHT22;51043;52.406;9.690;2023-04-24T01:16:40;11.10;99.90
64634;DHT22;51043;52.406;9.690;2023-04-24T01:19:10;11.00;99.90
64634;DHT22;51043;52.406;9.690;2023-04-24T01:21:38;10.90;99.90
64634;DHT22;51043;52.406;9.690;2023-04-24T01:24:08;10.70;99.90
64634;DHT22;51043;52.406;9.690;2023-04-24T01:26:37;10.50;99.90
64634;DHT22;51043;52.406;9.690;2023-04-24T01:29:05;10.30;99.90
64634;DHT22;51043;52.406;9.690;2023-04-24T01:31:34;10.20;99.90
64634;DHT22;51043;52.406;9.690;2023-04-24T01:34:02;10.10;99.90
64634;DHT22;51043;52.406;9.690;2023-04-24T01:36:32;10.20;99.90
64634;DHT22;51043;52.406;9.690;2023-04-24T01:39:02;10.30;99.90
64634;DHT22;51043;52.406;9.690;2023-04-24T01:41:32;10.50;99.90
64634;DHT22;51043;52.406;9.690;2023-04-24T01:44:00;10.60;99.90
64634;DHT22;51043;52.406;9.690;2023-04-24T01:46:28;10.50;99.90
64634;DHT22;51043;52.406;9.690;2023-04-24T01:49:00;10.40;99.90
64634;DHT22;51043;52.406;9.690;2023-04-24T01:51:28;10.20;99.90
64634;DHT22;51043;52.406;9.690;2023-04-24T01:53:56;10.10;99.90
64634;DHT22;51043;52.406;9.690;2023-04-24T01:56:25;10.00;99.90
64634;DHT22;51043;52.406;9.690;2023-04-24T01:58:58;9.90;99.90
64634;DHT22;51043;52.406;9.690;2023-04-24T02:01:33;10.20;99.90
64634;DHT22;51043;52.406;9.690;2023-04-24T02:04:02;10.30;99.90
64634;DHT22;51043;52.406;9.690;2023-04-24T02:06:30;10.50;99.90
64634;DHT22;51043;52.406;9.690;2023-04-24T02:09:00;10.60;99.90
64634;DHT22;51043;52.406;9.690;2023-04-24T02:11:28;10.70;99.90
64634;DHT22;51043;52.406;9.690;2023-04-24T02:13:58;10.80;99.90
64634;DHT22;51043;52.406;9.690;2023-04-24T02:16:28;11.00;99.90
64634;DHT22;51043;52.406;9.690;2023-04-24T02:18:57;11.20;99.90
64634;DHT22;51043;52.406;9.690;2023-04-24T02:21:24;11.30;99.90
64634;DHT22;51043;52.406;9.690;2023-04-24T02:23:54;11.40;99.90
64634;DHT22;51043;52.406;9.690;2023-04-24T02:26:22;11.50;99.90
64634;DHT22;51043;52.406;9.690;2023-04-24T02:28:51;11.50;99.90
64634;DHT22;51043;52.406;9.690;2023-04-24T02:31:21;11.60;99.90
64634;DHT22;51043;52.406;9.690;2023-04-24T02:33:49;11.60;99.90
64634;DHT22;51043;52.406;9.690;2023-04-24T02:36:17;11.60;99.90
64634;DHT22;51043;52.406;9.690;2023-04-24T02:38:47;11.60;99.90
64634;DHT22;51043;52.406;9.690;2023-04-24T02:41:15;11.60;99.90
64634;DHT22;51043;52.406;9.690;2023-04-24T02:43:43;11.60;99.90
64634;DHT22;51043;52.406;9.690;2023-04-24T02:46:11;11.50;99.90
64634;DHT22;51043;52.406;9.690;2023-04-24T02:48:40;11.50;99.90
64634;DHT22;51043;52.406;9.690;2023-04-24T02:51:08;11.40;99.90
64634;DHT22;51043;52.406;9.690;2023-04-24T02:53:36;11.30;99.90
64634;DHT22;51043;52.406;9.690;2023-04-24T02:56:04;11.20;99.90
64634;DHT22;51043;52.406;9.690;2023-04-24T02:58:32;11.00;99.90
64634;DHT22;51043;52.406;9.690;2023-04-24T03:01:00;10.90;99.90
64634;DHT22;51043;52.406;9.690;2023-04-24T03:03:29;10.90;99.90
64634;DHT22;51043;52.406;9.690;2023-04-24T03:05:58;10.70;99.90
64634;DHT22;51043;52.406;9.690;2023-04-24T03:08:26;10.80;99.90
64634;DHT22;51043;52.406;9.690;2023-04-24T03:10:54;10.80;99.90
64634;DHT22;51043;52.406;9.690;2023-04-24T03:13:22;10.90;99.90
64634;DHT22;51043;52.406;9.690;2023-04-24T03:15:51;10.90;99.90
64634;DHT22;51043;52.406;9.690;2023-04-24T03:18:20;11.10;99.90
64634;DHT22;51043;52.406;9.690;2023-04-24T03:20:50;11.10;99.90
64634;DHT22;51043;52.406;9.690;2023-04-24T03:23:19;11.20;99.90
64634;DHT22;51043;52.406;9.690;2023-04-24T03:25:47;11.10;99.90
64634;DHT22;51043;52.406;9.690;2023-04-24T03:28:18;11.10;99.90
64634;DHT22;51043;52.406;9.690;2023-04-24T03:30:57;11.00;99.90
64634;DHT22;51043;52.406;9.690;2023-04-24T03:33:29;11.00;99.90
64634;DHT22;51043;52.406;9.690;2023-04-24T03:36:01;10.90;99.90
64634;DHT22;51043;52.406;9.690;2023-04-24T03:38:37;10.90;99.90
64634;DHT22;51043;52.406;9.690;2023-04-24T03:41:19;10.90;99.90
64634;DHT22;51043;52.406;9.690;2023-04-24T03:43:54;10.90;99.90
64634;DHT22;51043;52.406;9.690;2023-04-24T03:46:22;10.90;99.90
64634;DHT22;51043;52.406;9.690;2023-04-24T03:48:54;10.90;99.90
64634;DHT22;51043;52.406;9.690;2023-04-24T03:51:26;10.90;99.90
64634;DHT22;51043;52.406;9.690;2023-04-24T03:54:04;10.90;99.90
64634;DHT22;51043;52.406;9.690;2023-04-24T03:56:35;10.80;99.90
64634;DHT22;51043;52.406;9.690;2023-04-24T03:59:03;10.80;99.90
64634;DHT22;51043;52.406;9.690;2023-04-24T04:01:32;10.70;99.90
64634;DHT22;51043;52.406;9.690;2023-04-24T04:04:09;10.70;99.90
64634;DHT22;51043;52.406;9.690;2023-04-24T04:06:38;10.70;99.90
64634;DHT22;51043;52.406;9.690;2023-04-24T04:09:07;10.60;99.90
64634;DHT22;51043;52.406;9.690;2023-04-24T04:11:36;10.70;99.90
64634;DHT22;51043;52.406;9.690;2023-04-24T04:14:04;10.60;99.90
64634;DHT22;51043;52.406;9.690;2023-04-24T04:16:34;10.60;99.90
64634;DHT22;51043;52.406;9.690;2023-04-24T04:19:05;10.60;99.90
64634;DHT22;51043;52.406;9.690;2023-04-24T04:21:33;10.60;99.90
64634;DHT22;51043;52.406;9.690;2023-04-24T04:24:20;10.60;99.90
64634;DHT22;51043;52.406;9.690;2023-04-24T04:26:49;10.60;99.90
64634;DHT22;51043;52.406;9.690;2023-04-24T04:29:29;10.60;99.90
64634;DHT22;51043;52.406;9.690;2023-04-24T04:31:58;10.60;99.90
64634;DHT22;51043;52.406;9.690;2023-04-24T04:34:26;10.60;99.90
64634;DHT22;51043;52.406;9.690;2023-04-24T04:36:56;10.60;99.90
64634;DHT22;51043;52.406;9.690;2023-04-24T04:40:00;10.70;99.90
64634;DHT22;51043;52.406;9.690;2023-04-24T04:42:38;10.70;99.90
64634;DHT22;51043;52.406;9.690;2023-04-24T04:45:08;10.60;99.90
64634;DHT22;51043;52.406;9.690;2023-04-24T04:47:51;10.60;99.90
64634;DHT22;51043;52.406;9.690;2023-04-24T04:50:19;10.60;99.90
64634;DHT22;51043;52.406;9.690;2023-04-24T04:52:49;10.60;99.90
64634;DHT22;51043;52.406;9.690;2023-04-24T04:55:26;10.50;99.90
64634;DHT22;51043;52.406;9.690;2023-04-24T04:58:07;10.50;99.90
64634;DHT22;51043;52.406;9.690;2023-04-24T05:00:36;10.50;99.90
64634;DHT22;51043;52.406;9.690;2023-04-24T05:03:13;10.60;99.90
64634;DHT22;51043;52.406;9.690;2023-04-24T05:05:47;10.60;99.90
64634;DHT22;51043;52.406;9.690;2023-04-24T05:08:17;10.60;99.90
64634;DHT22;51043;52.406;9.690;2023-04-24T05:10:54;10.70;99.90
64634;DHT22;51043;52.406;9.690;2023-04-24T05:13:23;10.80;99.90
64634;DHT22;51043;52.406;9.690;2023-04-24T05:15:58;10.90;99.90
64634;DHT22;51043;52.406;9.690;2023-04-24T05:18:28;11.00;99.90
64634;DHT22;51043;52.406;9.690;2023-04-24T05:20:57;11.10;99.90
64634;DHT22;51043;52.406;9.690;2023-04-24T05:23:25;11.10;99.90
64634;DHT22;51043;52.406;9.690;2023-04-24T05:25:56;11.20;99.90
64634;DHT22;51043;52.406;9.690;2023-04-24T05:28:27;11.30;99.90
64634;DHT22;51043;52.406;9.690;2023-04-24T05:31:05;11.50;99.90
64634;DHT22;51043;52.406;9.690;2023-04-24T05:33:34;11.70;99.90
64634;DHT22;51043;52.406;9.690;2023-04-24T05:36:02;11.90;99.90
64634;DHT22;51043;52.406;9.690;2023-04-24T05:38:32;12.20;99.90
64634;DHT22;51043;52.406;9.690;2023-04-24T05:41:02;12.40;99.90
64634;DHT22;51043;52.406;9.690;2023-04-24T05:43:30;12.50;99.90
64634;DHT22;51043;52.406;9.690;2023-04-24T05:45:59;12.50;99.90
64634;DHT22;51043;52.406;9.690;2023-04-24T05:48:27;12.60;99.90
64634;DHT22;51043;52.406;9.690;2023-04-24T05:50:55;12.60;99.90
64634;DHT22;51043;52.406;9.690;2023-04-24T05:53:24;12.50;99.90
64634;DHT22;51043;52.406;9.690;2023-04-24T05:55:52;12.40;99.90
64634;DHT22;51043;52.406;9.690;2023-04-24T05:58:21;12.30;99.90
64634;DHT22;51043;52.406;9.690;2023-04-24T06:00:49;12.20;99.90
64634;DHT22;51043;52.406;9.690;2023-04-24T06:03:17;12.30;99.90
64634;DHT22;51043;52.406;9.690;2023-04-24T06:05:47;12.30;99.90
64634;DHT22;51043;52.406;9.690;2023-04-24T06:08:17;12.30;99.90
64634;DHT22;51043;52.406;9.690;2023-04-24T06:10:46;12.30;99.90
64634;DHT22;51043;52.406;9.690;2023-04-24T06:13:16;12.30;99.90
64634;DHT22;51043;52.406;9.690;2023-04-24T06:16:04;12.30;99.90
64634;DHT22;51043;52.406;9.690;2023-04-24T06:18:36;12.30;99.90
64634;DHT22;51043;52.406;9.690;2023-04-24T06:21:04;12.20;99.90
64634;DHT22;51043;52.406;9.690;2023-04-24T06:23:32;12.20;99.90
64634;DHT22;51043;52.406;9.690;2023-04-24T06:26:00;12.20;99.90
64634;DHT22;51043;52.406;9.690;2023-04-24T06:28:28;12.20;99.90
64634;DHT22;51043;52.406;9.690;2023-04-24T06:30:57;12.10;99.90
64634;DHT22;51043;52.406;9.690;2023-04-24T06:33:26;12.00;99.90
64634;DHT22;51043;52.406;9.690;2023-04-24T06:35:55;12.00;99.90
64634;DHT22;51043;52.406;9.690;2023-04-24T06:38:22;12.00;99.90
64634;DHT22;51043;52.406;9.690;2023-04-24T06:40:50;12.00;99.90
64634;DHT22;51043;52.406;9.690;2023-04-24T06:43:18;12.10;99.90
64634;DHT22;51043;52.406;9.690;2023-04-24T06:45:47;12.10;99.90
64634;DHT22;51043;52.406;9.690;2023-04-24T06:48:14;12.00;99.90
64634;DHT22;51043;52.406;9.690;2023-04-24T06:50:44;12.20;99.90
64634;DHT22;51043;52.406;9.690;2023-04-24T06:53:13;12.40;99.90
64634;DHT22;51043;52.406;9.690;2023-04-24T06:55:42;12.40;99.90
64634;DHT22;51043;52.406;9.690;2023-04-24T06:58:11;12.50;99.90
64634;DHT22;51043;52.406;9.690;2023-04-24T07:00:40;12.50;99.90
64634;DHT22;51043;52.406;9.690;2023-04-24T07:03:08;12.40;99.90
64634;DHT22;51043;52.406;9.690;2023-04-24T07:05:36;12.50;99.90
64634;DHT22;51043;52.406;9.690;2023-04-24T07:08:06;12.60;99.90
64634;DHT22;51043;52.406;9.690;2023-04-24T07:10:35;12.70;99.90
64634;DHT22;51043;52.406;9.690;2023-04-24T07:13:03;12.90;99.90
64634;DHT22;51043;52.406;9.690;2023-04-24T07:15:31;13.00;99.90
64634;DHT22;51043;52.406;9.690;2023-04-24T07:18:00;12.70;99.90
64634;DHT22;51043;52.406;9.690;2023-04-24T07:20:30;12.70;99.90
64634;DHT22;51043;52.406;9.690;2023-04-24T07:23:00;12.90;99.90
64634;DHT22;51043;52.406;9.690;2023-04-24T07:25:29;12.90;99.90
64634;DHT22;51043;52.406;9.690;2023-04-24T07:27:58;12.90;99.90
64634;DHT22;51043;52.406;9.690;2023-04-24T07:30:26;12.90;99.90
64634;DHT22;51043;52.406;9.690;2023-04-24T07:32:55;12.90;99.90
64634;DHT22;51043;52.406;9.690;2023-04-24T07:35:23;12.90;99.90
64634;DHT22;51043;52.406;9.690;2023-04-24T07:37:53;12.60;99.90
64634;DHT22;51043;52.406;9.690;2023-04-24T07:40:21;12.60;99.90
64634;DHT22;51043;52.406;9.690;2023-04-24T07:42:51;12.70;99.90
64634;DHT22;51043;52.406;9.690;2023-04-24T07:45:19;13.00;99.90
64634;DHT22;51043;52.406;9.690;2023-04-24T07:47:47;13.30;99.90
64634;DHT22;51043;52.406;9.690;2023-04-24T07:50:15;13.40;99.90
64634;DHT22;51043;52.406;9.690;2023-04-24T07:52:43;14.30;99.90
64634;DHT22;51043;52.406;9.690;2023-04-24T07:55:11;14.40;99.90
64634;DHT22;51043;52.406;9.690;2023-04-24T07:57:39;14.40;99.90
64634;DHT22;51043;52.406;9.690;2023-04-24T08:00:10;14.40;99.90
64634;DHT22;51043;52.406;9.690;2023-04-24T08:02:38;14.00;99.90
64634;DHT22;51043;52.406;9.690;2023-04-24T08:05:06;14.00;99.90
64634;DHT22;51043;52.406;9.690;2023-04-24T08:07:35;14.20;99.90
64634;DHT22;51043;52.406;9.690;2023-04-24T08:10:04;15.10;99.90
64634;DHT22;51043;52.406;9.690;2023-04-24T08:12:32;15.60;99.90
64634;DHT22;51043;52.406;9.690;2023-04-24T08:15:00;15.20;99.90
64634;DHT22;51043;52.406;9.690;2023-04-24T08:17:29;15.40;99.90
64634;DHT22;51043;52.406;9.690;2023-04-24T08:20:01;15.40;99.90
64634;DHT22;51043;52.406;9.690;2023-04-24T08:22:29;14.80;99.90
64634;DHT22;51043;52.406;9.690;2023-04-24T08:25:00;14.30;99.90
64634;DHT22;51043;52.406;9.690;2023-04-24T08:27:28;13.80;99.90
64634;DHT22;51043;52.406;9.690;2023-04-24T08:29:57;13.60;99.90
64634;DHT22;51043;52.406;9.690;2023-04-24T08:32:25;13.50;99.90
64634;DHT22;51043;52.406;9.690;2023-04-24T08:34:55;13.20;99.90
64634;DHT22;51043;52.406;9.690;2023-04-24T08:37:25;13.60;99.90
64634;DHT22;51043;52.406;9.690;2023-04-24T08:39:53;14.40;99.90
64634;DHT22;51043;52.406;9.690;2023-04-24T08:42:21;14.70;99.90
64634;DHT22;51043;52.406;9.690;2023-04-24T08:44:49;14.80;99.90
64634;DHT22;51043;52.406;9.690;2023-04-24T08:47:18;14.70;99.90
64634;DHT22;51043;52.406;9.690;2023-04-24T08:49:48;14.00;99.90
64634;DHT22;51043;52.406;9.690;2023-04-24T08:52:19;13.50;99.90
64634;DHT22;51043;52.406;9.690;2023-04-24T08:54:48;13.10;99.90
64634;DHT22;51043;52.406;9.690;2023-04-24T08:57:17;12.90;99.90
64634;DHT22;51043;52.406;9.690;2023-04-24T08:59:47;12.80;99.90
64634;DHT22;51043;52.406;9.690;2023-04-24T09:02:16;12.80;99.90
64634;DHT22;51043;52.406;9.690;2023-04-24T09:04:44;12.80;99.90
64634;DHT22;51043;52.406;9.690;2023-04-24T09:07:14;12.80;99.90
64634;DHT22;51043;52.406;9.690;2023-04-24T09:09:48;12.70;99.90
64634;DHT22;51043;52.406;9.690;2023-04-24T09:12:18;12.90;99.90
64634;DHT22;51043;52.406;9.690;2023-04-24T09:14:47;12.90;99.90
64634;DHT22;51043;52.406;9.690;2023-04-24T09:17:15;13.10;99.90
64634;DHT22;51043;52.406;9.690;2023-04-24T09:19:44;13.20;99.90
64634;DHT22;51043;52.406;9.690;2023-04-24T09:22:12;13.20;99.90
64634;DHT22;51043;52.406;9.690;2023-04-24T09:24:40;13.00;99.90
64634;DHT22;51043;52.406;9.690;2023-04-24T09:27:11;12.90;99.90
64634;DHT22;51043;52.406;9.690;2023-04-24T09:29:53;12.80;99.90
64634;DHT22;51043;52.406;9.690;2023-04-24T09:32:23;12.70;99.90
64634;DHT22;51043;52.406;9.690;2023-04-24T09:35:05;12.70;99.90
64634;DHT22;51043;52.406;9.690;2023-04-24T09:37:38;12.60;99.90
64634;DHT22;51043;52.406;9.690;2023-04-24T09:40:16;12.50;99.90
64634;DHT22;51043;52.406;9.690;2023-04-24T09:42:50;12.40;99.90
64634;DHT22;51043;52.406;9.690;2023-04-24T09:45:20;12.50;99.90
64634;DHT22;51043;52.406;9.690;2023-04-24T09:47:52;12.50;99.90
64634;DHT22;51043;52.406;9.690;2023-04-24T09:50:21;12.70;99.90
64634;DHT22;51043;52.406;9.690;2023-04-24T09:52:56;12.90;99.90
64634;DHT22;51043;52.406;9.690;2023-04-24T09:55:25;12.80;99.90
64634;DHT22;51043;52.406;9.690;2023-04-24T09:57:56;12.80;99.90
64634;DHT22;51043;52.406;9.690;2023-04-24T10:00:26;12.70;99.90
64634;DHT22;51043;52.406;9.690;2023-04-24T10:02:56;12.70;99.90
64634;DHT22;51043;52.406;9.690;2023-04-24T10:05:27;12.70;99.90
64634;DHT22;51043;52.406;9.690;2023-04-24T10:08:02;12.70;99.90
64634;DHT22;51043;52.406;9.690;2023-04-24T10:10:31;12.60;99.90
64634;DHT22;51043;52.406;9.690;2023-04-24T10:13:01;12.70;99.90
64634;DHT22;51043;52.406;9.690;2023-04-24T10:15:30;12.80;99.90
64634;DHT22;51043;52.406;9.690;2023-04-24T10:17:59;12.80;99.90
64634;DHT22;51043;52.406;9.690;2023-04-24T10:20:29;13.00;99.90
64634;DHT22;51043;52.406;9.690;2023-04-24T10:22:58;13.00;99.90
64634;DHT22;51043;52.406;9.690;2023-04-24T10:25:28;12.90;99.90
64634;DHT22;51043;52.406;9.690;2023-04-24T10:27:58;12.70;99.90
64634;DHT22;51043;52.406;9.690;2023-04-24T10:30:29;12.60;99.90
64634;DHT22;51043;52.406;9.690;2023-04-24T10:33:02;12.50;99.90
64634;DHT22;51043;52.406;9.690;2023-04-24T10:35:31;12.50;99.90
64634;DHT22;51043;52.406;9.690;2023-04-24T10:38:03;12.50;99.90
64634;DHT22;51043;52.406;9.690;2023-04-24T10:40:34;12.60;99.90
64634;DHT22;51043;52.406;9.690;2023-04-24T10:43:04;12.60;99.90
64634;DHT22;51043;52.406;9.690;2023-04-24T10:45:36;12.60;99.90
64634;DHT22;51043;52.406;9.690;2023-04-24T10:48:08;12.50;99.90
64634;DHT22;51043;52.406;9.690;2023-04-24T10:50:44;12.60;99.90
64634;DHT22;51043;52.406;9.690;2023-04-24T10:53:14;12.70;99.90
64634;DHT22;51043;52.406;9.690;2023-04-24T10:55:46;12.60;99.90
64634;DHT22;51043;52.406;9.690;2023-04-24T10:58:14;12.50;99.90
64634;DHT22;51043;52.406;9.690;2023-04-24T11:00:55;12.40;99.90
64634;DHT22;51043;52.406;9.690;2023-04-24T11:03:26;12.50;99.90
64634;DHT22;51043;52.406;9.690;2023-04-24T11:06:01;12.30;99.90
64634;DHT22;51043;52.406;9.690;2023-04-24T11:08:31;12.40;99.90
64634;DHT22;51043;52.406;9.690;2023-04-24T11:11:08;12.40;99.90
64634;DHT22;51043;52.406;9.690;2023-04-24T11:14:02;12.50;99.90
64634;DHT22;51043;52.406;9.690;2023-04-24T11:16:34;12.40;99.90
64634;DHT22;51043;52.406;9.690;2023-04-24T11:19:06;12.30;99.90
64634;DHT22;51043;52.406;9.690;2023-04-24T11:21:43;12.30;99.90
64634;DHT22;51043;52.406;9.690;2023-04-24T11:24:28;12.10;99.90
64634;DHT22;51043;52.406;9.690;2023-04-24T11:27:05;12.00;99.90
64634;DHT22;51043;52.406;9.690;2023-04-24T11:29:41;12.00;99.90
64634;DHT22;51043;52.406;9.690;2023-04-24T11:32:26;12.10;99.90
64634;DHT22;51043;52.406;9.690;2023-04-24T11:34:56;12.20;99.90
64634;DHT22;51043;52.406;9.690;2023-04-24T11:37:26;12.30;99.90
64634;DHT22;51043;52.406;9.690;2023-04-24T11:39:57;12.30;99.90
64634;DHT22;51043;52.406;9.690;2023-04-24T11:42:26;12.20;99.90
64634;DHT22;51043;52.406;9.690;2023-04-24T11:44:55;12.30;99.90
64634;DHT22;51043;52.406;9.690;2023-04-24T11:47:31;12.30;99.90
64634;DHT22;51043;52.406;9.690;2023-04-24T11:50:01;12.30;99.90
64634;DHT22;51043;52.406;9.690;2023-04-24T11:52:30;12.30;99.90
64634;DHT22;51043;52.406;9.690;2023-04-24T11:54:59;12.30;99.90
64634;DHT22;51043;52.406;9.690;2023-04-24T11:57:27;12.30;99.90
64634;DHT22;51043;52.406;9.690;2023-04-24T12:00:00;12.70;99.90
64634;DHT22;51043;52.406;9.690;2023-04-24T12:02:39;13.10;99.90
64634;DHT22;51043;52.406;9.690;2023-04-24T12:05:07;13.80;99.90
64634;DHT22;51043;52.406;9.690;2023-04-24T12:07:40;14.30;99.90
64634;DHT22;51043;52.406;9.690;2023-04-24T12:10:11;14.30;99.90
64634;DHT22;51043;52.406;9.690;2023-04-24T12:12:39;13.90;99.90
64634;DHT22;51043;52.406;9.690;2023-04-24T12:15:08;13.60;99.90
64634;DHT22;51043;52.406;9.690;2023-04-24T12:17:42;13.30;99.90
64634;DHT22;51043;52.406;9.690;2023-04-24T12:20:11;13.10;99.90
64634;DHT22;51043;52.406;9.690;2023-04-24T12:22:44;12.90;99.90
64634;DHT22;51043;52.406;9.690;2023-04-24T12:25:13;12.70;99.90
64634;DHT22;51043;52.406;9.690;2023-04-24T12:27:43;12.60;99.90
64634;DHT22;51043;52.406;9.690;2023-04-24T12:30:13;12.30;99.90
64634;DHT22;51043;52.406;9.690;2023-04-24T12:32:44;12.30;99.90
64634;DHT22;51043;52.406;9.690;2023-04-24T12:35:13;12.30;99.90
64634;DHT22;51043;52.406;9.690;2023-04-24T12:37:42;12.30;99.90
64634;DHT22;51043;52.406;9.690;2023-04-24T12:40:13;12.30;99.90
64634;DHT22;51043;52.406;9.690;2023-04-24T12:42:43;12.30;99.90
64634;DHT22;51043;52.406;9.690;2023-04-24T12:45:12;12.40;99.90
64634;DHT22;51043;52.406;9.690;2023-04-24T12:47:43;12.40;99.90
64634;DHT22;51043;52.406;9.690;2023-04-24T12:50:12;12.30;99.90
64634;DHT22;51043;52.406;9.690;2023-04-24T12:52:41;11.80;99.90
64634;DHT22;51043;52.406;9.690;2023-04-24T12:55:09;11.60;99.90
64634;DHT22;51043;52.406;9.690;2023-04-24T12:57:39;11.60;99.90
64634;DHT22;51043;52.406;9.690;2023-04-24T13:00:09;11.60;99.90
64634;DHT22;51043;52.406;9.690;2023-04-24T13:02:48;11.60;99.90
64634;DHT22;51043;52.406;9.690;2023-04-24T13:05:29;11.50;99.90
64634;DHT22;51043;52.406;9.690;2023-04-24T13:07:59;11.40;99.90
64634;DHT22;51043;52.406;9.690;2023-04-24T13:10:27;11.30;99.90
64634;DHT22;51043;52.406;9.690;2023-04-24T13:12:55;10.90;99.90
64634;DHT22;51043;52.406;9.690;2023-04-24T13:15:23;10.70;99.90
64634;DHT22;51043;52.406;9.690;2023-04-24T13:17:52;10.50;99.90
64634;DHT22;51043;52.406;9.690;2023-04-24T13:20:20;10.40;99.90
64634;DHT22;51043;52.406;9.690;2023-04-24T13:22:48;10.30;99.90
64634;DHT22;51043;52.406;9.690;2023-04-24T13:25:17;10.30;99.90
64634;DHT22;51043;52.406;9.690;2023-04-24T13:27:45;10.30;99.90
64634;DHT22;51043;52.406;9.690;2023-04-24T13:30:14;10.40;99.90
64634;DHT22;51043;52.406;9.690;2023-04-24T13:32:42;10.30;99.90
64634;DHT22;51043;52.406;9.690;2023-04-24T13:35:11;10.20;99.90
64634;DHT22;51043;52.406;9.690;2023-04-24T13:37:39;10.10;99.90
64634;DHT22;51043;52.406;9.690;2023-04-24T13:40:08;10.10;99.90
64634;DHT22;51043;52.406;9.690;2023-04-24T13:42:36;10.30;99.90
64634;DHT22;51043;52.406;9.690;2023-04-24T13:45:05;10.40;99.90
64634;DHT22;51043;52.406;9.690;2023-04-24T13:47:40;10.50;99.90
64634;DHT22;51043;52.406;9.690;2023-04-24T13:50:10;10.40;99.90
64634;DHT22;51043;52.406;9.690;2023-04-24T13:52:39;10.20;99.90
64634;DHT22;51043;52.406;9.690;2023-04-24T13:55:07;10.10;99.90
64634;DHT22;51043;52.406;9.690;2023-04-24T13:57:35;10.00;99.90
64634;DHT22;51043;52.406;9.690;2023-04-24T14:00:05;9.90;99.90
64634;DHT22;51043;52.406;9.690;2023-04-24T14:02:37;9.70;99.90
64634;DHT22;51043;52.406;9.690;2023-04-24T14:05:06;9.50;99.90
64634;DHT22;51043;52.406;9.690;2023-04-24T14:07:35;9.40;99.90
64634;DHT22;51043;52.406;9.690;2023-04-24T14:10:08;9.30;99.90
64634;DHT22;51043;52.406;9.690;2023-04-24T14:12:41;9.30;99.90
64634;DHT22;51043;52.406;9.690;2023-04-24T14:15:09;9.10;99.90
64634;DHT22;51043;52.406;9.690;2023-04-24T14:17:40;9.00;99.90
64634;DHT22;51043;52.406;9.690;2023-04-24T14:20:09;9.00;99.90
64634;DHT22;51043;52.406;9.690;2023-04-24T14:22:42;9.10;99.90
64634;DHT22;51043;52.406;9.690;2023-04-24T14:25:10;9.10;99.90
64634;DHT22;51043;52.406;9.690;2023-04-24T14:27:42;8.90;99.90
64634;DHT22;51043;52.406;9.690;2023-04-24T14:30:10;8.80;99.90
64634;DHT22;51043;52.406;9.690;2023-04-24T14:32:39;8.80;99.90
64634;DHT22;51043;52.406;9.690;2023-04-24T14:35:08;8.80;99.90
64634;DHT22;51043;52.406;9.690;2023-04-24T14:37:36;8.80;99.90
64634;DHT22;51043;52.406;9.690;2023-04-24T14:40:07;8.90;99.90
64634;DHT22;51043;52.406;9.690;2023-04-24T14:42:41;8.80;99.90
64634;DHT22;51043;52.406;9.690;2023-04-24T14:45:10;8.90;99.90
64634;DHT22;51043;52.406;9.690;2023-04-24T14:47:40;8.90;99.90
64634;DHT22;51043;52.406;9.690;2023-04-24T14:50:09;8.90;99.90
64634;DHT22;51043;52.406;9.690;2023-04-24T14:52:37;8.80;99.90
64634;DHT22;51043;52.406;9.690;2023-04-24T14:55:08;8.80;99.90
64634;DHT22;51043;52.406;9.690;2023-04-24T14:57:36;9.10;99.90
64634;DHT22;51043;52.406;9.690;2023-04-24T15:00:06;8.90;99.90
64634;DHT22;51043;52.406;9.690;2023-04-24T15:02:36;8.90;99.90
64634;DHT22;51043;52.406;9.690;2023-04-24T15:05:08;8.80;99.90
64634;DHT22;51043;52.406;9.690;2023-04-24T15:07:37;8.70;99.90
64634;DHT22;51043;52.406;9.690;2023-04-24T15:10:07;8.70;99.90
64634;DHT22;51043;52.406;9.690;2023-04-24T15:12:36;8.70;99.90
64634;DHT22;51043;52.406;9.690;2023-04-24T15:15:05;8.70;99.90
64634;DHT22;51043;52.406;9.690;2023-04-24T15:17:33;8.80;99.90
64634;DHT22;51043;52.406;9.690;2023-04-24T15:20:01;8.70;99.90
64634;DHT22;51043;52.406;9.690;2023-04-24T15:22:30;8.70;99.90
64634;DHT22;51043;52.406;9.690;2023-04-24T15:24:58;8.90;99.90
64634;DHT22;51043;52.406;9.690;2023-04-24T15:27:27;9.00;99.90
64634;DHT22;51043;52.406;9.690;2023-04-24T15:30:08;9.00;99.90
64634;DHT22;51043;52.406;9.690;2023-04-24T15:32:37;9.20;99.90
64634;DHT22;51043;52.406;9.690;2023-04-24T15:35:06;9.30;99.90
64634;DHT22;51043;52.406;9.690;2023-04-24T15:37:35;9.40;99.90
64634;DHT22;51043;52.406;9.690;2023-04-24T15:40:05;9.40;99.90
64634;DHT22;51043;52.406;9.690;2023-04-24T15:42:35;9.30;99.90
64634;DHT22;51043;52.406;9.690;2023-04-24T15:45:03;9.30;99.90
64634;DHT22;51043;52.406;9.690;2023-04-24T15:47:32;9.30;99.90
64634;DHT22;51043;52.406;9.690;2023-04-24T15:50:00;9.30;99.90
64634;DHT22;51043;52.406;9.690;2023-04-24T15:52:28;9.40;99.90